Time;durP1;ratioP1;P1;durP2;ratioP2;P2;SDS_P1;SDS_P2;PMS_P1;PMS_P2;Temp;Humidity;BMP_temperature;BMP_pressure;BME280_temperature;BME280_humidity;BME280_pressure;Samples;Min_cycle;Max_cycle;Signal;HPM_P1;HPM_P2
2022/03/28 00:00:00;;;;;;;39.33;18.23;;;;;;;-1.15;59.29;99877.14;2119481;84;20907;-81
2022/03/28 00:03:01;;;;;;;39.93;17.70;;;;;;;-1.14;59.42;99868.67;2120827;84;20947;-81
2022/03/28 00:06:02;;;;;;;55.50;19.17;;;;;;;-1.14;59.55;99866.11;2115558;84;21022;-80
2022/03/28 00:09:05;;;;;;;46.00;19.60;;;;;;;-1.12;59.59;99864.17;2112771;84;21414;-81
2022/03/28 00:12:05;;;;;;;41.37;18.37;;;;;;;-1.13;59.47;99857.65;2115394;84;21035;-81
2022/03/28 00:15:05;;;;;;;43.43;18.23;;;;;;;-1.13;59.48;99856.37;2111890;84;21027;-81
2022/03/28 00:18:08;;;;;;;42.93;19.37;;;;;;;-1.15;59.55;99851.13;2112663;83;20919;-82
2022/03/28 00:21:08;;;;;;;42.00;18.77;;;;;;;-1.16;59.70;99851.91;2118155;84;21098;-81
2022/03/28 00:24:09;;;;;;;36.93;17.83;;;;;;;-1.15;59.84;99845.11;2117924;84;20970;-81
2022/03/28 00:27:10;;;;;;;43.87;18.83;;;;;;;-1.14;59.85;99837.93;2118322;84;20987;-81
2022/03/28 00:30:11;;;;;;;38.70;18.10;;;;;;;-1.14;59.81;99835.37;2103196;84;20979;-82
2022/03/28 00:33:11;;;;;;;44.00;18.30;;;;;;;-1.14;59.57;99832.80;2118500;84;20911;-81
2022/03/28 00:36:12;;;;;;;40.53;18.13;;;;;;;-1.16;59.76;99824.12;2124396;84;20947;-81
2022/03/28 00:39:12;;;;;;;40.83;19.13;;;;;;;-1.21;59.91;99820.33;2125693;84;20955;-81
2022/03/28 00:42:13;;;;;;;46.97;18.90;;;;;;;-1.25;59.91;99821.77;2125903;84;20950;-81
2022/03/28 00:45:13;;;;;;;39.90;18.00;;;;;;;-1.23;60.15;99820.61;2122543;84;20983;-82
2022/03/28 00:48:14;;;;;;;44.40;18.17;;;;;;;-1.23;60.23;99815.48;2116509;84;20983;-81
2022/03/28 00:51:14;;;;;;;45.40;19.20;;;;;;;-1.24;60.21;99806.02;2116074;83;20992;-82
2022/03/28 00:54:15;;;;;;;40.63;17.73;;;;;;;-1.25;60.44;99804.23;2119595;84;21002;-81
2022/03/28 00:57:17;;;;;;;44.13;18.13;;;;;;;-1.27;60.46;99800.67;2115774;84;21318;-81
2022/03/28 01:00:17;;;;;;;44.20;17.83;;;;;;;-1.35;60.47;99795.87;2116405;83;21389;-81
2022/03/28 01:03:18;;;;;;;40.03;17.70;;;;;;;-1.39;60.77;99789.13;2126318;84;20909;-81
2022/03/28 01:06:18;;;;;;;40.10;16.70;;;;;;;-1.36;61.02;99789.36;2119802;84;20991;-81
2022/03/28 01:09:19;;;;;;;39.90;17.97;;;;;;;-1.34;61.04;99787.41;2120958;84;20982;-81
2022/03/28 01:12:19;;;;;;;37.73;16.57;;;;;;;-1.35;60.74;99777.95;2126328;84;21353;-81
2022/03/28 01:15:20;;;;;;;37.33;17.37;;;;;;;-1.40;60.97;99774.16;2113106;83;21377;-81
2022/03/28 01:18:22;;;;;;;40.43;16.57;;;;;;;-1.43;61.20;99768.81;2120134;83;20938;-81
2022/03/28 01:21:22;;;;;;;47.97;18.00;;;;;;;-1.41;61.30;99768.53;2110880;84;21002;-79
2022/03/28 01:24:23;;;;;;;40.10;17.13;;;;;;;-1.41;61.47;99762.13;2122139;83;21421;-82
2022/03/28 01:27:24;;;;;;;42.87;18.03;;;;;;;-1.41;61.42;99770.20;2126296;84;21291;-84
2022/03/28 01:30:25;;;;;;;40.40;17.27;;;;;;;-1.45;61.50;99765.64;2126142;84;21437;-82
2022/03/28 01:33:25;;;;;;;42.33;17.67;;;;;;;-1.46;61.63;99766.03;2126157;84;20941;-82
2022/03/28 01:36:26;;;;;;;37.60;17.27;;;;;;;-1.46;61.68;99764.75;2126074;84;21334;-81
2022/03/28 01:39:26;;;;;;;38.70;17.50;;;;;;;-1.47;61.70;99756.56;2126106;84;21373;-81
2022/03/28 01:42:27;;;;;;;36.97;16.57;;;;;;;-1.48;61.72;99754.78;2126177;84;21633;-81
2022/03/28 01:45:27;;;;;;;37.77;17.77;;;;;;;-1.51;61.76;99748.16;2125986;84;21006;-81
2022/03/28 01:48:29;;;;;;;48.30;17.10;;;;;;;-1.51;61.91;99743.03;2123971;84;21026;-81
2022/03/28 01:51:31;;;;;;;42.47;18.13;;;;;;;-1.52;61.65;99741.64;2111962;83;20951;-82
2022/03/28 01:54:32;;;;;;;39.13;17.17;;;;;;;-1.53;61.94;99735.63;2116146;83;21102;-83
2022/03/28 01:57:32;;;;;;;46.10;18.20;;;;;;;-1.55;61.93;99730.79;2100074;84;21303;-82
2022/03/28 02:00:33;;;;;;;38.67;17.67;;;;;;;-1.57;62.18;99727.61;2091832;84;21365;-82
2022/03/28 02:03:33;;;;;;;56.07;17.83;;;;;;;-1.57;62.09;99725.94;2105614;84;21311;-83
2022/03/28 02:06:34;;;;;;;44.63;18.97;;;;;;;-1.59;62.06;99720.21;2109688;84;20975;-82
2022/03/28 02:09:34;;;;;;;63.27;19.00;;;;;;;-1.61;62.05;99714.59;2116229;84;21014;-82
2022/03/28 02:12:35;;;;;;;55.53;18.67;;;;;;;0.06;66.24;99709.24;2104252;84;20907;-82
2022/03/28 02:15:35;;;;;;;39.37;17.07;;;;;;;-0.12;62.02;99704.13;2114538;84;20994;-81
2022/03/28 02:18:38;;;;;;;76.70;19.73;;;;;;;-0.47;61.33;99704.31;2110327;84;21370;-82
2022/03/28 02:21:38;;;;;;;128.77;24.33;;;;;;;-0.75;61.29;99706.25;2114761;84;21509;-82
2022/03/28 02:24:39;;;;;;;74.50;19.67;;;;;;;-0.93;61.36;99699.81;2097331;84;20951;-77
2022/03/28 02:27:39;;;;;;;35.97;17.43;;;;;;;-1.08;61.48;99698.73;2100347;84;20983;-82
2022/03/28 02:30:40;;;;;;;44.53;17.50;;;;;;;-1.20;61.73;99692.73;2101577;84;21027;-82
2022/03/28 02:33:40;;;;;;;68.27;19.93;;;;;;;-1.29;61.93;99690.02;2112935;84;21370;-80
2022/03/28 02:36:41;;;;;;;41.30;17.43;;;;;;;-1.35;62.19;99693.42;2120121;83;21354;-81
2022/03/28 02:39:42;;;;;;;40.77;17.40;;;;;;;-1.39;62.25;99682.85;2109531;83;21357;-81
2022/03/28 02:42:42;;;;;;;43.57;18.27;;;;;;;-1.43;62.25;99677.02;2109592;83;20950;-84
2022/03/28 02:45:43;;;;;;;59.87;19.40;;;;;;;-1.49;62.11;99673.63;2121530;84;20982;-82
2022/03/28 02:48:43;;;;;;;92.57;20.57;;;;;;;-1.54;62.56;99680.08;2116849;84;21018;-83
2022/03/28 02:51:44;;;;;;;38.10;18.00;;;;;;;-1.61;62.71;99676.58;2114109;84;20971;-82
2022/03/28 02:54:44;;;;;;;36.00;16.67;;;;;;;-1.62;62.89;99674.41;2097881;84;20979;-83
2022/03/28 02:57:44;;;;;;;38.83;17.40;;;;;;;-1.65;62.93;99667.78;2112560;84;21034;-83
2022/03/28 03:00:45;;;;;;;63.23;14.83;;;;;;;-1.66;63.01;99668.95;2113817;84;20951;-82
2022/03/28 03:03:46;;;;;;;44.40;17.13;;;;;;;-1.21;80.56;99670.08;2119476;84;20935;-83
2022/03/28 03:06:46;;;;;;;42.10;17.40;;;;;;;0.64;65.08;99659.09;2119458;84;20947;-82
2022/03/28 03:09:47;;;;;;;42.37;16.70;;;;;;;0.16;61.76;99657.72;2111103;83;21024;-83
2022/03/28 03:12:47;;;;;;;45.47;17.43;;;;;;;-0.31;61.23;99655.83;2120605;84;21041;-82
2022/03/28 03:15:48;;;;;;;34.00;15.30;;;;;;;-0.69;61.32;99660.53;2118279;83;21031;-83
2022/03/28 03:18:48;;;;;;;42.00;17.27;;;;;;;-0.98;61.51;99648.63;2122689;84;20980;-82
2022/03/28 03:21:49;;;;;;;47.67;18.80;;;;;;;-1.15;61.67;99656.41;2125830;84;20966;-82
2022/03/28 03:24:49;;;;;;;39.47;17.47;;;;;;;-1.30;61.94;99648.54;2123368;84;20972;-83
2022/03/28 03:27:51;;;;;;;34.77;16.90;;;;;;;-1.42;62.34;99645.50;2111205;84;21439;-82
2022/03/28 03:30:52;;;;;;;45.77;18.30;;;;;;;-1.49;62.64;99643.28;2117428;84;21334;-83
2022/03/28 03:33:52;;;;;;;38.47;17.13;;;;;;;-1.57;62.94;99640.17;2118129;84;21003;-82
2022/03/28 03:36:53;;;;;;;38.43;17.33;;;;;;;-1.62;62.93;99634.72;2119697;84;20958;-81
2022/03/28 03:39:54;;;;;;;41.63;18.30;;;;;;;-1.67;62.98;99635.17;2118270;84;20954;-83
2022/03/28 03:42:54;;;;;;;40.17;17.30;;;;;;;-1.72;63.22;99635.23;2113540;84;20986;-82
2022/03/28 03:45:55;;;;;;;43.90;17.60;;;;;;;-1.75;63.51;99629.86;2111496;84;21377;-83
2022/03/28 03:48:55;;;;;;;40.87;17.73;;;;;;;-1.84;63.71;99625.36;2121418;84;21041;-82
2022/03/28 03:51:56;;;;;;;44.40;17.53;;;;;;;-1.84;63.83;99624.97;2107114;84;21042;-82
2022/03/28 03:54:56;;;;;;;36.97;17.03;;;;;;;-1.84;63.85;99618.57;2114101;83;20959;-82
2022/03/28 03:57:57;;;;;;;43.40;17.83;;;;;;;-1.82;63.87;99618.68;2094964;84;21078;-81
2022/03/28 04:00:57;;;;;;;42.00;17.13;;;;;;;-1.85;64.03;99615.90;2109453;84;21009;-82
2022/03/28 04:03:58;;;;;;;38.37;14.40;;;;;;;-1.87;64.04;99614.51;2118311;84;20978;-82
2022/03/28 04:06:59;;;;;;;38.87;16.97;;;;;;;-0.83;77.43;99607.42;2105747;84;21018;-83
2022/03/28 04:10:01;;;;;;;38.47;17.03;;;;;;;0.46;63.47;99606.16;2111359;84;21073;-82
2022/03/28 04:13:01;;;;;;;39.53;17.43;;;;;;;0.02;61.26;99609.72;2111375;84;21014;-82
2022/03/28 04:16:02;;;;;;;45.30;19.37;;;;;;;-0.43;61.01;99620.37;2115770;84;21417;-83
2022/03/28 04:19:03;;;;;;;92.70;21.47;;;;;;;-0.16;76.67;99613.22;2093350;84;20971;-85
2022/03/28 04:22:03;;;;;;;52.07;19.03;;;;;;;3.63;72.26;99599.14;2100031;84;21002;-85
2022/03/28 04:25:04;;;;;;;55.30;20.87;;;;;;;5.73;55.40;99592.30;2119511;84;20974;-84
2022/03/28 04:28:07;;;;;;;34.60;17.23;;;;;;;6.45;50.69;99592.34;2106856;83;21051;-83
2022/03/28 04:31:08;;;;;;;36.67;18.33;;;;;;;5.40;49.79;99595.61;2112542;84;20975;-82
2022/03/28 04:34:09;;;;;;;70.53;21.70;;;;;;;3.69;50.21;99599.05;2106504;84;20983;-84
2022/03/28 04:37:10;;;;;;;44.73;18.40;;;;;;;2.46;51.48;99601.02;2111584;84;21070;-83
2022/03/28 04:40:10;;;;;;;45.20;18.00;;;;;;;1.63;52.71;99600.92;2107556;84;21468;-83
2022/03/28 04:43:11;;;;;;;42.20;20.43;;;;;;;1.04;53.75;99598.64;2117675;84;21016;-83
2022/03/28 04:46:11;;;;;;;51.93;18.47;;;;;;;0.58;54.64;99595.36;2117509;84;20959;-83
2022/03/28 04:49:14;;;;;;;42.03;18.87;;;;;;;0.23;55.59;99599.55;2107872;84;21043;-83
2022/03/28 04:52:14;;;;;;;56.57;18.50;;;;;;;-0.07;56.38;99595.86;2106334;84;21053;-81
2022/03/28 04:55:15;;;;;;;69.87;20.07;;;;;;;-0.26;57.23;99595.45;2092258;84;21021;-80
2022/03/28 04:58:16;;;;;;;48.47;19.40;;;;;;;-0.37;57.95;99595.13;2111776;84;21041;-81
2022/03/28 05:01:17;;;;;;;47.80;18.97;;;;;;;-0.41;58.64;99593.15;2122817;84;20986;-82
2022/03/28 05:04:17;;;;;;;45.10;19.57;;;;;;;-0.43;58.96;99588.31;2122861;84;20966;-83
2022/03/28 05:07:18;;;;;;;65.53;21.03;;;;;;;-0.28;59.00;99595.73;2122113;84;20978;-81
2022/03/28 05:10:19;;;;;;;40.90;19.43;;;;;;;-0.09;58.87;99593.59;2115171;84;21018;-80
2022/03/28 05:13:20;;;;;;;69.23;21.10;;;;;;;0.11;58.73;99591.06;2107058;84;20986;-82
2022/03/28 05:16:22;;;;;;;42.60;19.47;;;;;;;0.28;58.59;99590.86;2108995;83;21038;-80
2022/03/28 05:19:22;;;;;;;54.90;20.47;;;;;;;0.52;58.49;99583.42;2114153;84;21014;-83
2022/03/28 05:22:24;;;;;;;71.07;25.20;;;;;;;0.73;58.09;99582.58;2112831;83;21169;-82
2022/03/28 05:25:24;;;;;;;254.70;36.73;;;;;;;1.02;57.87;99585.69;2114693;84;20982;-82
2022/03/28 05:28:25;;;;;;;72.33;22.67;;;;;;;1.41;57.16;99580.77;2109733;84;21029;-80
2022/03/28 05:31:25;;;;;;;88.87;23.20;;;;;;;1.82;56.95;99585.79;2106696;84;21033;-83
2022/03/28 05:34:32;;;;;;;45.07;22.17;;;;;;;2.25;56.42;99585.66;2115080;84;21049;-84
2022/03/28 05:37:31;;;;;;;97.07;23.33;;;;;;;2.58;55.66;99584.06;2107880;83;21428;-84
2022/03/28 05:43:34;;;;;;;56.30;23.47;;;;;;;3.32;54.28;99569.55;2100997;84;21022;-82
2022/03/28 05:46:35;;;;;;;56.73;23.70;;;;;;;3.70;53.44;99570.25;2117875;84;20974;-84
2022/03/28 05:49:35;;;;;;;45.13;22.07;;;;;;;4.07;52.56;99567.37;2117259;84;21005;-83
2022/03/28 05:52:37;;;;;;;44.20;20.93;;;;;;;4.44;51.02;99562.31;2117907;84;20997;-80
2022/03/28 05:55:41;;;;;;;44.53;22.43;;;;;;;4.70;50.66;99563.94;2117395;83;21070;-82
2022/03/28 05:58:41;;;;;;;37.57;20.03;;;;;;;4.97;50.52;99562.61;2099695;84;21098;-84
2022/03/28 06:01:41;;;;;;;79.43;21.87;;;;;;;5.30;48.74;99549.42;2093098;84;21005;-80
2022/03/28 06:04:42;;;;;;;42.07;20.10;;;;;;;5.58;48.17;99553.68;2112943;84;21033;-83
2022/03/28 06:10:45;;;;;;;68.87;21.57;;;;;;;6.10;47.94;99553.33;2093774;84;20999;-83
2022/03/28 06:13:45;;;;;;;38.57;19.33;;;;;;;6.38;47.68;99551.02;2112943;83;21002;-82
2022/03/28 06:16:46;;;;;;;73.00;21.60;;;;;;;6.63;47.32;99537.28;2101946;84;21026;-84
2022/03/28 06:19:46;;;;;;;41.43;18.77;;;;;;;6.89;46.83;99537.38;2116794;84;21025;-83
2022/03/28 06:22:47;;;;;;;36.53;18.37;;;;;;;7.11;46.51;99537.80;2103124;84;20971;-82
2022/03/28 06:25:47;;;;;;;36.80;17.63;;;;;;;7.28;46.41;99521.11;2097982;84;21026;-83
2022/03/28 06:28:49;;;;;;;40.30;18.70;;;;;;;7.54;45.55;99525.50;2098472;84;21061;-82
2022/03/28 06:31:50;;;;;;;35.83;18.13;;;;;;;7.72;45.17;99515.27;2110242;84;21026;-83
2022/03/28 06:34:52;;;;;;;40.43;18.80;;;;;;;7.88;44.97;99512.38;2094589;84;21010;-82
2022/03/28 06:37:53;;;;;;;39.63;17.97;;;;;;;8.27;43.57;99516.27;2106299;84;21087;-82
2022/03/28 06:40:53;;;;;;;36.90;18.77;;;;;;;8.27;43.57;99516.27;2102161;84;20986;-83
2022/03/28 06:43:54;;;;;;;32.37;17.87;;;;;;;8.43;44.22;99511.56;2103997;83;21381;-84
2022/03/28 06:46:55;;;;;;;30.77;17.67;;;;;;;8.51;43.12;99512.69;2089014;84;21002;-82
2022/03/28 06:49:55;;;;;;;344.70;50.50;;;;;;;8.55;43.46;99502.84;2088276;85;21308;-81
2022/03/28 06:52:56;;;;;;;51.67;19.37;;;;;;;8.88;46.64;99501.68;2100369;84;21061;-83
2022/03/28 06:55:56;;;;;;;37.40;17.23;;;;;;;9.15;44.12;99502.45;2117626;84;21046;-84
2022/03/28 06:58:57;;;;;;;35.90;18.47;;;;;;;9.21;43.80;99495.23;2113662;84;21397;-83
2022/03/28 07:01:59;;;;;;;34.10;17.20;;;;;;;9.27;43.11;99487.58;2106952;83;21025;-82
2022/03/28 07:05:00;;;;;;;37.27;17.47;;;;;;;9.36;43.09;99491.73;2116782;84;20995;-81
2022/03/28 07:08:00;;;;;;;28.30;16.87;;;;;;;9.50;43.60;99486.47;2113135;84;21014;-83
2022/03/28 07:11:02;;;;;;;34.97;16.97;;;;;;;9.67;43.16;99488.25;2113147;83;20974;-83
2022/03/28 07:14:02;;;;;;;30.67;16.83;;;;;;;9.86;42.94;99481.77;2118404;84;21121;-84
2022/03/28 07:17:03;;;;;;;26.03;16.23;;;;;;;10.03;42.36;99473.93;2115105;84;21019;-83
2022/03/28 07:20:03;;;;;;;33.57;19.20;;;;;;;10.23;42.63;99469.64;2112868;83;21005;-82
2022/03/28 07:23:04;;;;;;;33.27;17.70;;;;;;;10.41;42.65;99470.08;2112734;83;21013;-82
2022/03/28 07:26:04;;;;;;;542.13;91.33;;;;;;;10.62;42.67;99467.06;2110441;84;20975;-82
2022/03/28 07:29:05;;;;;;;41.37;18.60;;;;;;;10.85;43.51;99456.25;2115994;84;21050;-81
2022/03/28 07:32:05;;;;;;;33.63;16.33;;;;;;;11.16;42.23;99452.93;2115244;84;20966;-83
2022/03/28 07:38:10;;;;;;;23.43;14.33;;;;;;;11.46;41.98;99455.27;2093895;84;20998;-83
2022/03/28 07:41:11;;;;;;;24.57;13.97;;;;;;;11.63;40.84;99457.75;2111487;84;21089;-84
2022/03/28 07:44:12;;;;;;;29.90;15.80;;;;;;;11.75;40.72;99446.61;2107907;84;21022;-82
2022/03/28 07:47:13;;;;;;;27.77;14.47;;;;;;;11.87;40.72;99448.16;2110176;84;20986;-82
2022/03/28 07:50:13;;;;;;;23.90;14.23;;;;;;;12.01;40.98;99449.25;2117005;84;21061;-84
2022/03/28 07:53:14;;;;;;;28.23;14.53;;;;;;;12.24;40.15;99440.91;2117676;84;21192;-81
2022/03/28 07:56:15;;;;;;;27.82;15.23;;;;;;;12.32;40.49;99440.58;2109556;84;21366;-81
2022/03/28 07:59:16;;;;;;;29.23;14.30;;;;;;;12.49;39.60;99429.91;2117734;83;21052;-82
2022/03/28 08:02:16;;;;;;;18.52;12.63;;;;;;;12.71;40.10;99432.38;2122820;84;20982;-82
2022/03/28 08:05:17;;;;;;;20.88;12.20;;;;;;;12.92;39.70;99433.07;2122515;84;21449;-82
2022/03/28 08:08:17;;;;;;;26.33;14.13;;;;;;;13.09;39.13;99427.63;2121777;84;21027;-82
2022/03/28 08:11:18;;;;;;;23.92;13.98;;;;;;;13.20;39.55;99419.91;2116921;84;20986;-81
2022/03/28 08:14:19;;;;;;;23.45;12.78;;;;;;;13.34;38.86;99411.31;2117125;84;20998;-83
2022/03/28 08:17:20;;;;;;;22.85;13.22;;;;;;;13.54;38.69;99408.00;2106934;84;21052;-81
2022/03/28 08:20:21;;;;;;;19.15;12.65;;;;;;;13.62;37.74;99404.58;2114463;84;20993;-83
2022/03/28 08:23:22;;;;;;;16.55;11.38;;;;;;;13.77;38.48;99402.51;2109168;84;20991;-83
2022/03/28 08:26:24;;;;;;;19.73;12.65;;;;;;;13.94;37.41;99398.73;2113475;84;21037;-83
2022/03/28 08:29:24;;;;;;;17.70;12.00;;;;;;;14.05;37.84;99386.99;2120826;84;21038;-83
2022/03/28 08:32:27;;;;;;;21.55;11.65;;;;;;;14.18;37.95;99380.95;2094421;84;21026;-83
2022/03/28 08:35:27;;;;;;;17.87;11.30;;;;;;;14.27;36.58;99391.07;2109180;84;21476;-84
2022/03/28 08:38:28;;;;;;;21.82;10.85;;;;;;;14.24;36.90;99377.05;2116033;84;21422;-82
2022/03/28 08:41:28;;;;;;;16.55;10.88;;;;;;;14.36;36.62;99374.48;2109615;83;21385;-82
2022/03/28 08:44:29;;;;;;;15.90;10.60;;;;;;;14.43;35.93;99368.42;2118784;84;21061;-82
2022/03/28 08:47:29;;;;;;;16.85;10.40;;;;;;;14.48;35.88;99369.76;2117497;84;21455;-82
2022/03/28 08:50:30;;;;;;;15.08;10.53;;;;;;;14.58;36.49;99359.73;2117076;84;21045;-83
2022/03/28 08:53:31;;;;;;;15.00;10.55;;;;;;;14.70;35.60;99358.90;2117432;84;21045;-81
2022/03/28 08:56:31;;;;;;;15.78;10.20;;;;;;;14.75;35.72;99349.31;2114570;84;20987;-83
2022/03/28 08:59:32;;;;;;;13.28;10.03;;;;;;;14.98;35.91;99345.87;2096863;83;21010;-82
2022/03/28 09:02:33;;;;;;;17.05;10.13;;;;;;;15.23;35.80;99345.47;2091353;84;20987;-83
2022/03/28 09:05:33;;;;;;;13.25;8.85;;;;;;;15.50;34.80;99344.61;2091832;84;20955;-83
2022/03/28 09:08:34;;;;;;;12.47;9.10;;;;;;;15.62;33.70;99345.55;2093505;84;21018;-82
2022/03/28 09:11:34;;;;;;;23.60;10.65;;;;;;;15.63;33.57;99344.67;2095734;83;21037;-82
2022/03/28 09:14:35;;;;;;;15.78;10.30;;;;;;;15.56;33.01;99333.20;2095174;84;20990;-83
2022/03/28 09:17:35;;;;;;;20.10;10.28;;;;;;;15.49;33.42;99332.33;2100568;83;21037;-83
2022/03/28 09:20:36;;;;;;;18.70;10.18;;;;;;;15.44;33.12;99338.03;2095559;84;20984;-83
2022/03/28 09:23:36;;;;;;;17.40;10.95;;;;;;;15.51;33.23;99329.70;2095453;84;21006;-82
2022/03/28 09:26:37;;;;;;;15.32;10.72;;;;;;;15.71;33.22;99320.10;2095337;84;20986;-82
2022/03/28 09:29:37;;;;;;;15.00;10.93;;;;;;;15.63;33.06;99319.67;2089162;85;21085;-83
2022/03/28 09:32:38;;;;;;;15.60;11.12;;;;;;;15.63;33.67;99304.77;2090544;84;21355;-83
2022/03/28 09:35:38;;;;;;;19.15;12.07;;;;;;;15.79;33.83;99299.91;2096991;83;21318;-83
2022/03/28 09:38:39;;;;;;;18.32;10.93;;;;;;;15.91;33.49;99295.05;2091705;84;20979;-82
2022/03/28 09:41:39;;;;;;;18.20;11.22;;;;;;;16.10;33.78;99283.59;2099533;83;21015;-82
2022/03/28 09:44:40;;;;;;;16.90;11.05;;;;;;;16.31;33.04;99273.41;2095345;84;21022;-83
2022/03/28 09:47:40;;;;;;;18.42;11.93;;;;;;;16.29;32.65;99271.66;2098565;83;21017;-83
2022/03/28 09:50:41;;;;;;;17.07;11.00;;;;;;;16.31;32.55;99272.09;2092156;84;21002;-83
2022/03/28 09:53:41;;;;;;;17.20;10.32;;;;;;;16.42;31.56;99268.97;2100968;83;20986;-82
2022/03/28 09:56:42;;;;;;;17.70;10.03;;;;;;;16.57;32.08;99258.81;2098476;84;21148;-83
2022/03/28 09:59:42;;;;;;;15.38;8.95;;;;;;;16.71;30.96;99260.09;2107598;84;21045;-83
2022/03/28 10:02:43;;;;;;;13.78;10.28;;;;;;;16.76;29.28;99254.34;2110603;84;21037;-84
2022/03/28 10:05:43;;;;;;;16.85;11.45;;;;;;;16.74;30.50;99244.25;2115988;84;21439;-83
2022/03/28 10:08:44;;;;;;;17.70;11.25;;;;;;;16.80;29.80;99254.31;2117194;84;21034;-83
2022/03/28 10:11:44;;;;;;;16.73;11.45;;;;;;;16.74;29.84;99237.66;2095923;84;21006;-84
2022/03/28 10:14:45;;;;;;;13.93;10.30;;;;;;;16.82;30.31;99231.89;2108213;84;21002;-84
2022/03/28 10:17:47;;;;;;;17.25;12.60;;;;;;;16.97;30.38;99231.78;2098928;84;21468;-82
2022/03/28 10:20:52;;;;;;;17.37;11.33;;;;;;;17.07;30.06;99231.27;2090094;84;21244;-83
2022/03/28 10:23:50;;;;;;;18.85;11.73;;;;;;;17.22;30.51;99218.38;2089474;85;21037;-84
2022/03/28 10:26:51;;;;;;;20.68;11.78;;;;;;;17.29;30.11;99217.44;2090197;85;21006;-84
2022/03/28 10:29:53;;;;;;;18.77;12.23;;;;;;;17.29;29.94;99215.67;2110055;84;21180;-82
2022/03/28 10:32:53;;;;;;;47.13;15.28;;;;;;;17.31;29.84;99220.50;2117409;84;21033;-83
2022/03/28 10:35:54;;;;;;;15.72;11.93;;;;;;;17.35;29.40;99209.05;2117091;84;21009;-79
2022/03/28 10:38:57;;;;;;;16.80;12.23;;;;;;;17.32;29.16;99202.90;2103364;84;21050;-83
2022/03/28 10:41:57;;;;;;;14.38;10.38;;;;;;;17.36;29.90;99193.66;2100862;84;21427;-83
2022/03/28 10:44:57;;;;;;;13.43;11.03;;;;;;;17.56;29.27;99189.94;2118972;84;21045;-83
2022/03/28 10:48:00;;;;;;;16.02;11.22;;;;;;;17.65;29.49;99184.55;2109022;84;21092;-83
2022/03/28 10:51:01;;;;;;;16.07;11.00;;;;;;;17.75;29.14;99172.58;2118938;84;21022;-82
2022/03/28 10:54:07;;;;;;;17.30;10.85;;;;;;;17.86;29.47;99169.81;2118306;84;21037;-82
2022/03/28 10:57:07;;;;;;;18.60;11.25;;;;;;;18.07;29.68;99160.30;2108709;84;21078;-83
2022/03/28 11:00:08;;;;;;;14.55;10.30;;;;;;;18.15;28.28;99163.70;2109938;83;21491;-85
2022/03/28 11:03:09;;;;;;;17.23;10.40;;;;;;;18.09;28.96;99161.59;2123341;84;21030;-83
2022/03/28 11:06:09;;;;;;;17.77;10.30;;;;;;;18.09;29.01;99151.02;2115307;84;20966;-84
2022/03/28 11:09:10;;;;;;;12.43;10.08;;;;;;;18.11;28.17;99138.67;2115205;84;21022;-83
2022/03/28 11:12:10;;;;;;;14.50;10.50;;;;;;;18.15;28.61;99145.66;2110246;83;20982;-83
2022/03/28 11:15:11;;;;;;;13.00;9.35;;;;;;;18.04;28.88;99130.41;2118697;84;20995;-83
2022/03/28 11:18:12;;;;;;;13.03;10.10;;;;;;;18.06;28.71;99129.94;2114582;84;21057;-83
2022/03/28 11:21:12;;;;;;;15.75;9.60;;;;;;;18.07;29.29;99119.34;2111072;84;20993;-82
2022/03/28 11:24:13;;;;;;;12.68;9.80;;;;;;;18.23;29.37;99122.67;2108888;84;21387;-82
2022/03/28 11:27:15;;;;;;;12.55;9.03;;;;;;;18.27;28.76;99116.91;2108284;84;21025;-82
2022/03/28 11:30:15;;;;;;;17.10;9.15;;;;;;;18.19;28.88;99112.14;2110534;83;21409;-83
2022/03/28 11:33:17;;;;;;;15.70;8.93;;;;;;;18.27;28.82;99105.88;2115083;84;21441;-83
2022/03/28 11:36:18;;;;;;;13.68;8.23;;;;;;;18.32;28.64;99109.33;2111855;84;21441;-83
2022/03/28 11:39:21;;;;;;;13.72;9.28;;;;;;;18.30;28.65;99099.67;2113687;84;21495;-85
2022/03/28 11:42:21;;;;;;;14.38;8.48;;;;;;;18.32;28.73;99096.11;2112220;83;21115;-84
2022/03/28 11:45:22;;;;;;;26.87;10.68;;;;;;;18.36;29.13;99081.95;2118760;84;20988;-82
2022/03/28 11:48:22;;;;;;;27.15;10.75;;;;;;;18.40;28.86;99084.98;2118964;84;20999;-83
2022/03/28 11:51:23;;;;;;;16.17;9.08;;;;;;;18.45;28.95;99067.27;2117503;84;21022;-82
2022/03/28 11:54:23;;;;;;;13.18;9.20;;;;;;;18.45;29.40;99063.31;2117839;83;21048;-84
2022/03/28 12:00:43;;;;;;;15.72;9.13;;;;;;;18.46;29.14;99054.93;2117029;84;21117;-83
2022/03/28 12:03:43;;;;;;;9.88;7.67;;;;;;;18.47;29.01;99056.67;2111659;84;22041;-83
2022/03/28 12:06:45;;;;;;;15.40;9.23;;;;;;;18.53;29.16;99046.45;2104142;84;20998;-84
2022/03/28 12:09:46;;;;;;;11.57;8.48;;;;;;;18.56;28.87;99035.82;2108262;84;21044;-82
2022/03/28 12:12:46;;;;;;;10.30;6.40;;;;;;;18.59;29.09;99037.09;2108544;84;21040;-84
2022/03/28 12:15:47;;;;;;;8.90;6.42;;;;;;;18.63;28.97;99028.24;2108615;84;21005;-85
2022/03/28 12:18:48;;;;;;;11.50;6.70;;;;;;;18.66;29.03;99032.16;2112056;83;21015;-83
2022/03/28 12:21:48;;;;;;;16.02;7.62;;;;;;;18.67;28.82;99040.51;2098417;84;20959;-82
2022/03/28 12:24:49;;;;;;;12.15;7.58;;;;;;;18.65;29.37;99019.83;2112932;84;20947;-82
2022/03/28 12:27:50;;;;;;;15.50;7.97;;;;;;;18.75;29.74;99009.52;2115571;84;21729;-81
2022/03/28 12:30:51;;;;;;;9.95;6.92;;;;;;;18.90;29.59;98997.77;2106411;84;21054;-83
2022/03/28 12:33:52;;;;;;;13.72;6.53;;;;;;;18.97;28.73;99006.88;2117105;84;21070;-82
2022/03/28 12:36:53;;;;;;;17.62;7.03;;;;;;;18.87;29.20;98992.09;2116402;84;21030;-81
2022/03/28 12:39:54;;;;;;;12.07;7.30;;;;;;;18.91;28.97;98989.80;2092634;84;21030;-84
2022/03/28 12:42:55;;;;;;;9.20;7.15;;;;;;;18.85;28.61;98985.95;2089681;85;21071;-83
2022/03/28 12:45:56;;;;;;;11.35;6.60;;;;;;;18.72;28.85;98973.88;2104320;84;21070;-82
2022/03/28 12:48:57;;;;;;;14.15;6.60;;;;;;;18.63;28.83;98973.59;2106087;84;21089;-82
2022/03/28 12:51:58;;;;;;;9.83;7.08;;;;;;;18.65;28.65;98965.63;2105315;84;21073;-81
2022/03/28 12:54:58;;;;;;;11.33;6.22;;;;;;;18.65;29.19;98956.37;2116118;84;21233;-82
2022/03/28 12:58:00;;;;;;;11.55;5.62;;;;;;;18.74;29.26;98953.56;2107216;84;21106;-83
2022/03/28 13:01:01;;;;;;;12.65;7.30;;;;;;;18.86;29.55;98947.16;2112012;84;21145;-83
2022/03/28 13:04:02;;;;;;;8.45;7.10;;;;;;;18.95;28.79;98949.17;2115774;83;20963;-81
2022/03/28 13:07:02;;;;;;;8.95;6.78;;;;;;;18.87;29.21;98929.94;2118430;84;20970;-82
2022/03/28 13:10:03;;;;;;;7.87;6.15;;;;;;;18.86;28.93;98924.23;2118810;83;21077;-83
2022/03/28 13:13:04;;;;;;;13.58;6.80;;;;;;;18.90;28.79;98921.94;2118463;84;20966;-83
2022/03/28 13:16:04;;;;;;;9.08;6.65;;;;;;;18.93;28.35;98915.72;2112737;83;21057;-82
2022/03/28 13:19:04;;;;;;;9.73;6.50;;;;;;;18.99;28.74;98911.17;2110262;83;21007;-83
2022/03/28 13:22:06;;;;;;;8.68;6.22;;;;;;;19.05;28.85;98911.04;2117110;84;21233;-81
2022/03/28 13:25:07;;;;;;;8.18;6.22;;;;;;;19.05;28.75;98897.81;2111390;84;20987;-83
2022/03/28 13:28:12;;;;;;;12.00;6.62;;;;;;;19.02;29.06;98899.20;2114800;83;21583;-82
2022/03/28 13:31:14;;;;;;;8.73;5.62;;;;;;;19.12;28.67;98890.65;2115700;84;21524;-81
2022/03/28 13:34:15;;;;;;;8.60;5.25;;;;;;;19.14;29.18;98881.35;2115887;83;21138;-84
2022/03/28 13:37:15;;;;;;;10.35;5.35;;;;;;;19.14;29.02;98878.70;2117132;83;21061;-82
2022/03/28 13:40:16;;;;;;;8.33;4.78;;;;;;;19.05;28.91;98903.55;2123757;84;20954;-83
2022/03/28 13:43:16;;;;;;;7.85;6.15;;;;;;;19.00;28.97;98862.66;2124356;84;21038;-84
2022/03/28 13:46:17;;;;;;;10.38;5.75;;;;;;;18.97;28.75;98867.14;2113567;84;21017;-83
2022/03/28 13:49:18;;;;;;;7.62;6.58;;;;;;;18.96;28.98;98857.46;2114090;84;21045;-82
2022/03/28 13:52:19;;;;;;;9.75;5.62;;;;;;;18.91;29.01;98858.02;2115470;84;20943;-83
2022/03/28 13:55:20;;;;;;;10.23;5.92;;;;;;;18.95;29.41;98857.04;2112081;84;21030;-82
2022/03/28 13:58:20;;;;;;;8.80;6.75;;;;;;;19.00;29.32;98848.55;2111435;84;21753;-82
2022/03/28 14:01:27;;;;;;;7.97;6.60;;;;;;;18.99;29.09;98846.36;2115928;84;21406;-82
2022/03/28 14:04:24;;;;;;;10.05;5.92;;;;;;;18.91;29.00;98841.69;2123945;83;21462;-83
2022/03/28 14:07:24;;;;;;;9.10;5.15;;;;;;;18.85;28.91;98835.22;2111779;83;20947;-82